Time;durP1;ratioP1;P1;durP2;ratioP2;P2;SDS_P1;SDS_P2;PMS_P1;PMS_P2;Temp;Humidity;BMP_temperature;BMP_pressure;BME280_temperature;BME280_humidity;BME280_pressure;Samples;Min_cycle;Max_cycle;Signal;HPM_P1;HPM_P2
2024/03/08 00:01:49;;;;;;;42.20;19.05;;;7.80;95.40;;;;;;5089833;28;20040;-77
2024/03/08 00:04:15;;;;;;;44.65;20.33;;;7.80;95.40;;;;;;5092378;28;20102;-78
2024/03/08 00:06:41;;;;;;;40.40;18.27;;;7.80;95.40;;;;;;5110588;28;20032;-77
2024/03/08 00:09:10;;;;;;;43.83;20.50;;;7.80;95.30;;;;;;5088527;28;20933;-77
2024/03/08 00:11:35;;;;;;;41.70;21.50;;;7.80;95.40;;;;;;5091397;28;20424;-77
2024/03/08 00:14:01;;;;;;;48.65;22.73;;;7.80;95.30;;;;;;5098119;28;20122;-78
2024/03/08 00:16:27;;;;;;;54.38;21.13;;;7.80;95.40;;;;;;5097023;28;20040;-77
2024/03/08 00:18:53;;;;;;;44.78;20.40;;;7.70;95.50;;;;;;5091796;28;20399;-77
2024/03/08 00:21:18;;;;;;;25.95;12.00;;;7.70;95.50;;;;;;5099494;28;20032;-77
2024/03/08 00:23:44;;;;;;;43.03;18.52;;;7.70;95.40;;;;;;5089943;28;20640;-77
2024/03/08 00:26:09;;;;;;;43.05;18.83;;;7.70;95.50;;;;;;5089895;28;20032;-77
2024/03/08 00:28:35;;;;;;;43.42;17.45;;;7.70;95.50;;;;;;5089490;28;20036;-77
2024/03/08 00:31:03;;;;;;;37.55;17.63;;;7.70;95.50;;;;;;5099242;28;20032;-77
2024/03/08 00:33:29;;;;;;;41.20;19.52;;;7.70;95.50;;;;;;5101717;28;20024;-77
2024/03/08 00:35:55;;;;;;;24.73;10.55;;;7.60;95.50;;;;;;5095792;28;20073;-78
2024/03/08 00:38:20;;;;;;;42.00;19.05;;;7.60;95.50;;;;;;5093431;28;20055;-77
2024/03/08 00:40:46;;;;;;;36.00;15.25;;;7.60;95.60;;;;;;5089205;28;20027;-76
2024/03/08 00:43:12;;;;;;;37.90;18.00;;;7.60;95.60;;;;;;5088631;28;20062;-77
2024/03/08 00:45:37;;;;;;;37.05;17.20;;;7.50;95.60;;;;;;5099628;28;20085;-77
2024/03/08 00:48:05;;;;;;;37.03;17.83;;;7.50;95.70;;;;;;5091901;28;20065;-77
2024/03/08 00:50:31;;;;;;;38.38;15.60;;;7.50;95.70;;;;;;5089770;28;20118;-77
2024/03/08 00:52:56;;;;;;;38.95;16.67;;;7.50;95.70;;;;;;5094578;28;20123;-77
2024/03/08 00:55:22;;;;;;;42.90;19.88;;;7.50;95.60;;;;;;5095013;28;20119;-77
2024/03/08 00:57:48;;;;;;;46.15;19.45;;;7.50;95.70;;;;;;5098316;28;20042;-77
2024/03/08 01:00:14;;;;;;;40.80;18.48;;;7.50;95.70;;;;;;5088882;28;20032;-77
2024/03/08 01:02:41;;;;;;;40.10;18.50;;;7.50;95.70;;;;;;5093396;28;20431;-77
2024/03/08 01:05:07;;;;;;;45.83;15.38;;;7.50;95.60;;;;;;5106941;28;20040;-77
2024/03/08 01:07:36;;;;;;;34.92;15.75;;;7.50;95.60;;;;;;5098579;28;20357;-77
2024/03/08 01:10:09;;;;;;;42.78;17.58;;;7.50;95.60;;;;;;5088703;28;20063;-76
2024/03/08 01:12:35;;;;;;;37.67;17.77;;;7.50;95.60;;;;;;5103702;28;20055;-77
2024/03/08 01:15:01;;;;;;;34.95;14.13;;;7.50;95.60;;;;;;5108395;28;20325;-77
2024/03/08 01:17:26;;;;;;;35.92;17.88;;;7.50;95.60;;;;;;5103139;28;20028;-76
2024/03/08 01:19:53;;;;;;;35.03;15.35;;;7.50;95.60;;;;;;5104237;27;20428;-77
2024/03/08 01:22:19;;;;;;;42.10;15.63;;;7.50;95.50;;;;;;5104021;27;20065;-77
2024/03/08 01:24:45;;;;;;;38.22;15.25;;;7.40;95.60;;;;;;5102389;27;20074;-77
2024/03/08 01:27:12;;;;;;;32.97;16.35;;;7.50;95.50;;;;;;5100688;27;20039;-77
2024/03/08 01:29:38;;;;;;;34.15;17.45;;;7.50;95.50;;;;;;5098502;27;20066;-77
2024/03/08 01:32:04;;;;;;;35.75;15.55;;;7.40;95.50;;;;;;5087780;28;20035;-76
2024/03/08 01:34:29;;;;;;;32.33;16.10;;;7.50;95.50;;;;;;5097365;28;20028;-77
2024/03/08 01:36:56;;;;;;;29.58;14.90;;;7.50;95.50;;;;;;5107701;27;20501;-77
2024/03/08 01:39:22;;;;;;;33.13;16.92;;;7.50;95.50;;;;;;5109479;28;20082;-76
2024/03/08 01:41:48;;;;;;;41.97;15.95;;;7.40;95.40;;;;;;5087981;28;20028;-77
2024/03/08 01:44:17;;;;;;;32.17;16.75;;;7.50;95.40;;;;;;5088088;28;20035;-77
2024/03/08 01:46:47;;;;;;;39.13;17.48;;;7.50;95.40;;;;;;5101023;28;20050;-77
2024/03/08 01:49:13;;;;;;;33.88;15.55;;;7.40;95.30;;;;;;5091663;28;20036;-76
2024/03/08 01:51:41;;;;;;;35.65;16.02;;;7.40;95.40;;;;;;5099078;28;20054;-76
2024/03/08 01:54:09;;;;;;;36.67;16.02;;;7.40;95.30;;;;;;5087852;28;20131;-77
2024/03/08 01:56:37;;;;;;;35.03;15.35;;;7.40;95.30;;;;;;5098009;28;20040;-77
2024/03/08 01:59:04;;;;;;;41.10;15.73;;;7.40;95.40;;;;;;5103631;28;20082;-77
2024/03/08 02:01:30;;;;;;;35.97;15.75;;;7.40;95.40;;;;;;5095450;28;20074;-77
2024/03/08 02:03:55;;;;;;;32.50;16.33;;;7.40;95.40;;;;;;5101701;28;20043;-77
2024/03/08 02:06:21;;;;;;;32.15;13.52;;;7.30;95.30;;;;;;5105617;28;20035;-77
2024/03/08 02:08:47;;;;;;;27.77;13.10;;;7.30;95.40;;;;;;5106151;28;20027;-77
2024/03/08 02:11:13;;;;;;;26.63;13.18;;;7.30;95.40;;;;;;5095464;28;20029;-77
2024/03/08 02:13:39;;;;;;;31.58;16.45;;;7.30;95.40;;;;;;5092214;28;20085;-77
2024/03/08 02:16:07;;;;;;;30.10;15.23;;;7.30;95.40;;;;;;5100204;28;20123;-77
2024/03/08 02:18:34;;;;;;;27.85;13.68;;;7.20;95.40;;;;;;5102925;28;20118;-78
2024/03/08 02:21:04;;;;;;;28.95;13.25;;;7.20;95.40;;;;;;5092612;28;20040;-77
2024/03/08 02:23:30;;;;;;;29.27;13.90;;;7.20;95.40;;;;;;5091298;28;20051;-78
2024/03/08 02:25:57;;;;;;;24.25;11.85;;;7.20;95.40;;;;;;5105039;28;20494;-77
2024/03/08 02:28:25;;;;;;;28.95;14.23;;;7.10;95.40;;;;;;5092716;28;20027;-77
2024/03/08 02:30:51;;;;;;;32.72;14.55;;;7.10;95.40;;;;;;5105792;28;20399;-77
2024/03/08 02:33:18;;;;;;;28.17;13.45;;;7.20;95.50;;;;;;5103413;28;20096;-77
2024/03/08 02:35:47;;;;;;;19.30;9.63;;;7.10;95.50;;;;;;5104818;28;20039;-77
2024/03/08 02:38:19;;;;;;;26.58;12.35;;;7.10;95.50;;;;;;5106853;28;20021;-77
2024/03/08 02:40:46;;;;;;;18.00;9.10;;;7.00;95.40;;;;;;5101235;28;20039;-77
2024/03/08 02:43:14;;;;;;;36.10;15.20;;;7.00;95.40;;;;;;5094734;28;20039;-77
2024/03/08 02:45:41;;;;;;;28.80;13.23;;;7.10;95.60;;;;;;5090702;28;20032;-76
2024/03/08 02:48:08;;;;;;;31.60;15.30;;;7.00;95.50;;;;;;5103921;28;20383;-77
2024/03/08 02:50:37;;;;;;;31.42;14.25;;;7.00;95.50;;;;;;5103890;28;20032;-77
2024/03/08 02:53:06;;;;;;;26.95;12.50;;;7.00;95.40;;;;;;5096230;28;20073;-76
2024/03/08 02:55:33;;;;;;;29.63;10.98;;;6.90;95.50;;;;;;5101898;28;20055;-77
2024/03/08 02:57:59;;;;;;;32.00;14.50;;;6.90;95.30;;;;;;5097387;28;20137;-77
2024/03/08 03:00:27;;;;;;;24.02;10.95;;;6.90;95.50;;;;;;5091193;28;20110;-77
2024/03/08 03:02:56;;;;;;;33.17;15.35;;;6.90;95.50;;;;;;5093414;28;20051;-76
2024/03/08 03:05:22;;;;;;;31.15;13.77;;;6.90;95.50;;;;;;5094827;28;20460;-77
2024/03/08 03:07:48;;;;;;;29.55;14.48;;;7.00;95.50;;;;;;5096182;28;20475;-77
2024/03/08 03:10:17;;;;;;;25.15;12.68;;;6.90;95.40;;;;;;5111077;28;20028;-77
2024/03/08 03:12:43;;;;;;;22.85;11.43;;;6.90;95.40;;;;;;5094347;28;20123;-77
2024/03/08 03:15:11;;;;;;;27.75;13.65;;;6.90;95.40;;;;;;5105686;28;20061;-77
2024/03/08 03:17:37;;;;;;;31.08;14.40;;;6.90;95.50;;;;;;5110814;28;20070;-77
2024/03/08 03:20:09;;;;;;;30.88;14.63;;;6.90;95.40;;;;;;5090038;28;20055;-77
2024/03/08 03:22:36;;;;;;;29.48;13.90;;;6.90;95.40;;;;;;5103428;28;20482;-77
2024/03/08 03:25:04;;;;;;;30.05;13.43;;;6.90;95.30;;;;;;5103159;28;20385;-77
2024/03/08 03:27:30;;;;;;;31.92;14.00;;;6.90;95.30;;;;;;5090798;28;20068;-77
2024/03/08 03:29:57;;;;;;;30.67;13.63;;;7.00;95.30;;;;;;5093870;28;20479;-77
2024/03/08 03:32:23;;;;;;;25.05;11.73;;;7.00;95.30;;;;;;5094505;28;20051;-77
2024/03/08 03:34:52;;;;;;;31.02;13.43;;;6.90;95.20;;;;;;5098549;28;20059;-76
2024/03/08 03:37:19;;;;;;;33.10;14.02;;;6.90;95.20;;;;;;5101194;28;20027;-77
2024/03/08 03:39:48;;;;;;;31.08;13.23;;;7.00;95.20;;;;;;5091553;28;20048;-77
2024/03/08 03:42:17;;;;;;;32.72;14.73;;;7.00;95.20;;;;;;5094788;28;20047;-77
2024/03/08 03:44:47;;;;;;;33.53;14.07;;;7.00;95.20;;;;;;5100502;28;20019;-76
2024/03/08 03:47:16;;;;;;;33.75;15.35;;;6.90;95.10;;;;;;5099538;28;20024;-77
2024/03/08 03:49:42;;;;;;;34.67;15.68;;;6.90;95.20;;;;;;5103673;28;20379;-78
2024/03/08 03:52:08;;;;;;;32.45;13.20;;;6.90;95.20;;;;;;5094945;28;20042;-76
2024/03/08 03:54:34;;;;;;;30.17;13.85;;;6.80;95.20;;;;;;5106376;28;20536;-77
2024/03/08 03:57:00;;;;;;;31.08;14.10;;;6.90;95.20;;;;;;5090023;28;20040;-77
2024/03/08 03:59:26;;;;;;;31.52;15.30;;;6.90;95.10;;;;;;5103426;28;20584;-77
2024/03/08 04:01:53;;;;;;;30.10;15.05;;;6.90;95.10;;;;;;5101253;28;20104;-76
2024/03/08 04:04:19;;;;;;;25.98;13.23;;;6.90;95.10;;;;;;5097685;28;20030;-77
2024/03/08 04:06:44;;;;;;;31.15;15.38;;;6.90;95.10;;;;;;5096800;28;20032;-76
2024/03/08 04:09:12;;;;;;;28.52;12.85;;;6.80;95.10;;;;;;5099207;28;20031;-76
2024/03/08 04:11:38;;;;;;;28.42;14.00;;;6.80;95.10;;;;;;5109882;28;20139;-77
2024/03/08 04:14:04;;;;;;;25.70;11.20;;;6.80;95.20;;;;;;5093514;28;20335;-77
2024/03/08 04:16:31;;;;;;;27.63;12.32;;;6.80;95.20;;;;;;5090414;28;20035;-77
2024/03/08 04:19:04;;;;;;;25.33;12.07;;;6.70;95.40;;;;;;5101663;28;20071;-76
2024/03/08 04:21:30;;;;;;;26.73;12.85;;;6.70;95.20;;;;;;5109682;28;20027;-76
2024/03/08 04:23:56;;;;;;;29.48;13.25;;;6.70;95.20;;;;;;5093526;28;20047;-77
2024/03/08 04:26:22;;;;;;;27.38;12.98;;;6.70;95.20;;;;;;5104671;28;20031;-77
2024/03/08 04:28:47;;;;;;;33.13;13.82;;;6.70;95.30;;;;;;5102176;28;20467;-77
2024/03/08 04:31:13;;;;;;;29.67;14.45;;;6.70;95.20;;;;;;5093900;28;20033;-77
2024/03/08 04:33:39;;;;;;;29.52;13.82;;;6.60;95.20;;;;;;5089796;28;20042;-77
2024/03/08 04:36:05;;;;;;;32.00;13.73;;;6.60;95.20;;;;;;5092160;28;20042;-77
2024/03/08 04:38:31;;;;;;;27.40;12.10;;;6.60;95.30;;;;;;5104654;28;20040;-77
2024/03/08 04:40:57;;;;;;;32.17;13.98;;;6.60;95.30;;;;;;5094657;28;20092;-76
2024/03/08 04:43:26;;;;;;;26.60;13.57;;;6.60;95.20;;;;;;5089308;28;20404;-77
2024/03/08 04:45:52;;;;;;;23.88;11.50;;;6.60;95.20;;;;;;5092660;28;20044;-77
2024/03/08 04:48:18;;;;;;;25.42;11.55;;;6.60;95.20;;;;;;5096625;28;20028;-78
2024/03/08 04:50:44;;;;;;;27.75;10.55;;;6.50;95.30;;;;;;5090869;28;20085;-77
2024/03/08 04:53:10;;;;;;;28.60;11.35;;;6.50;95.20;;;;;;5099330;28;20431;-77
2024/03/08 04:55:38;;;;;;;21.17;11.05;;;6.50;95.30;;;;;;5091673;28;20078;-77
2024/03/08 04:58:05;;;;;;;31.10;12.55;;;6.50;95.40;;;;;;5097871;28;20084;-77
2024/03/08 05:00:32;;;;;;;30.50;12.48;;;6.50;95.30;;;;;;5089081;28;20119;-77
2024/03/08 05:02:58;;;;;;;16.85;7.82;;;6.50;95.30;;;;;;5088861;28;20036;-76
2024/03/08 05:05:24;;;;;;;25.45;11.23;;;6.50;95.30;;;;;;5090975;28;20039;-77
2024/03/08 05:07:50;;;;;;;25.23;12.00;;;6.50;95.30;;;;;;5087616;28;20384;-77
2024/03/08 05:10:17;;;;;;;21.95;10.82;;;6.50;95.30;;;;;;5095028;28;20023;-77
2024/03/08 05:12:44;;;;;;;24.05;11.43;;;6.40;95.20;;;;;;5099350;28;20039;-77
2024/03/08 05:15:09;;;;;;;29.10;13.38;;;6.40;95.10;;;;;;5109222;28;20039;-76
2024/03/08 05:17:35;;;;;;;29.85;12.38;;;6.40;95.30;;;;;;5104328;28;20481;-77
2024/03/08 05:20:01;;;;;;;29.88;14.10;;;6.40;95.20;;;;;;5107412;28;20027;-77
2024/03/08 05:22:27;;;;;;;24.33;11.15;;;6.40;95.20;;;;;;5089879;28;20032;-77
2024/03/08 05:24:53;;;;;;;27.15;12.63;;;6.40;95.20;;;;;;5092353;28;20048;-76
2024/03/08 05:27:19;;;;;;;25.05;11.07;;;6.40;95.30;;;;;;5102652;28;20168;-77
2024/03/08 05:29:46;;;;;;;26.88;11.75;;;6.40;95.20;;;;;;5103980;28;20039;-78
2024/03/08 05:32:12;;;;;;;26.20;11.32;;;6.40;95.20;;;;;;5090746;28;20040;-77
2024/03/08 05:34:38;;;;;;;19.70;10.27;;;6.40;95.20;;;;;;5096014;28;20040;-78
2024/03/08 05:37:07;;;;;;;30.20;13.55;;;6.30;95.10;;;;;;5088352;28;20048;-79
2024/03/08 05:39:32;;;;;;;25.80;10.95;;;6.30;95.30;;;;;;5098916;28;20023;-81
2024/03/08 05:41:58;;;;;;;22.02;11.90;;;6.40;95.30;;;;;;5096227;28;20028;-78
2024/03/08 05:44:24;;;;;;;27.60;11.48;;;6.20;95.30;;;;;;5098304;28;20051;-78
2024/03/08 05:46:50;;;;;;;27.52;12.77;;;6.30;95.20;;;;;;5089474;28;20028;-79
2024/03/08 05:49:16;;;;;;;27.15;12.55;;;6.20;95.30;;;;;;5099222;28;20471;-77
2024/03/08 05:51:43;;;;;;;31.92;13.65;;;6.20;95.30;;;;;;5091930;28;20031;-74
2024/03/08 05:54:11;;;;;;;29.17;12.50;;;6.20;95.20;;;;;;5096964;28;20159;-76
2024/03/08 05:56:42;;;;;;;25.02;9.30;;;6.20;95.20;;;;;;5088178;28;20107;-76
2024/03/08 05:59:08;;;;;;;26.42;10.73;;;6.30;95.30;;;;;;5100522;28;20118;-78
2024/03/08 06:01:36;;;;;;;31.75;13.15;;;6.20;95.20;;;;;;5094422;28;20031;-76
2024/03/08 06:04:03;;;;;;;27.55;13.35;;;6.20;95.20;;;;;;5088257;28;20089;-77
2024/03/08 06:06:28;;;;;;;27.50;12.30;;;6.20;95.20;;;;;;5105467;28;20467;-77
2024/03/08 06:08:56;;;;;;;32.67;13.18;;;6.20;95.20;;;;;;5101335;28;20046;-77
2024/03/08 06:11:22;;;;;;;26.05;12.90;;;6.20;95.20;;;;;;5095354;28;20025;-76
2024/03/08 06:13:49;;;;;;;23.45;12.68;;;6.20;95.20;;;;;;5092150;28;20374;-78
2024/03/08 06:16:15;;;;;;;28.55;12.65;;;6.20;95.20;;;;;;5101200;28;20529;-77
2024/03/08 06:18:41;;;;;;;22.30;10.52;;;6.20;95.20;;;;;;5092607;28;20032;-78
2024/03/08 06:21:09;;;;;;;29.70;13.27;;;6.20;95.20;;;;;;5090581;28;20036;-78
2024/03/08 06:23:41;;;;;;;29.67;14.27;;;6.20;95.20;;;;;;5096278;28;20071;-80
2024/03/08 06:26:07;;;;;;;29.67;13.65;;;6.20;95.20;;;;;;5092788;28;20035;-79
2024/03/08 06:28:34;;;;;;;18.15;9.23;;;6.20;95.20;;;;;;5097645;28;20036;-77
2024/03/08 06:31:00;;;;;;;24.67;12.20;;;6.20;95.50;;;;;;5094593;28;20092;-79
2024/03/08 06:33:26;;;;;;;28.30;13.23;;;6.10;95.20;;;;;;5097853;28;20098;-76
2024/03/08 06:35:52;;;;;;;26.08;11.50;;;6.10;95.20;;;;;;5099575;28;20047;-77
2024/03/08 06:38:19;;;;;;;22.20;11.52;;;6.10;95.20;;;;;;5095917;28;20077;-81
2024/03/08 06:40:47;;;;;;;25.17;10.98;;;6.10;95.20;;;;;;5091984;28;20081;-78
2024/03/08 06:43:15;;;;;;;33.55;14.05;;;6.10;95.30;;;;;;5092216;28;20036;-78
2024/03/08 06:45:45;;;;;;;26.27;11.65;;;6.10;95.30;;;;;;5093120;28;20127;-79
2024/03/08 06:48:11;;;;;;;30.10;11.77;;;6.10;95.30;;;;;;5092611;28;20051;-79
2024/03/08 06:50:36;;;;;;;27.40;12.25;;;6.10;95.50;;;;;;5091633;28;20057;-79
2024/03/08 06:53:03;;;;;;;25.83;12.50;;;6.10;95.30;;;;;;5093681;28;20055;-79
2024/03/08 06:55:29;;;;;;;30.20;12.70;;;6.10;95.30;;;;;;5099316;28;20084;-78
2024/03/08 06:57:54;;;;;;;27.98;12.50;;;6.10;95.50;;;;;;5095198;28;20058;-78
2024/03/08 07:00:26;;;;;;;27.52;12.25;;;6.20;95.20;;;;;;5100143;28;20360;-78
2024/03/08 07:02:53;;;;;;;20.40;8.70;;;6.10;95.20;;;;;;5090679;28;20135;-78
2024/03/08 07:05:19;;;;;;;26.58;13.32;;;6.20;95.20;;;;;;5097327;28;20459;-78
2024/03/08 07:07:48;;;;;;;29.80;13.43;;;6.10;95.20;;;;;;5094194;28;20069;-78
2024/03/08 07:10:15;;;;;;;27.20;12.73;;;6.10;95.20;;;;;;5106729;28;20039;-78
2024/03/08 07:12:44;;;;;;;34.88;13.82;;;6.10;95.20;;;;;;5091986;28;20463;-78
2024/03/08 07:15:13;;;;;;;33.50;12.32;;;6.20;95.20;;;;;;5097419;28;20040;-77
2024/03/08 07:17:39;;;;;;;23.92;12.55;;;6.10;95.20;;;;;;5091896;28;20119;-77
2024/03/08 07:20:11;;;;;;;12.90;6.57;;;6.10;95.30;;;;;;5100766;28;20056;-81
2024/03/08 07:22:38;;;;;;;23.85;11.20;;;6.10;95.40;;;;;;5093612;28;20479;-80
2024/03/08 07:25:20;;;;;;;24.77;13.23;;;6.10;95.40;;;;;;5110108;28;20136;-78
2024/03/08 07:27:54;;;;;;;9.63;3.70;;;6.10;95.60;;;;;;5102796;28;20055;-78
2024/03/08 07:33:11;;;;;;;32.47;12.95;;;6.10;95.70;;;;;;5093225;28;20123;-78
2024/03/08 07:35:37;;;;;;;13.95;6.57;;;6.00;95.70;;;;;;5102695;28;20047;-79
2024/03/08 07:38:12;;;;;;;17.25;7.90;;;6.00;95.80;;;;;;5096672;28;20032;-79
2024/03/08 07:40:44;;;;;;;18.25;9.20;;;6.10;95.80;;;;;;5102603;28;20032;-78
2024/03/08 07:43:11;;;;;;;23.75;10.65;;;6.10;96.00;;;;;;5101951;28;20576;-78
2024/03/08 07:45:40;;;;;;;21.42;9.50;;;6.10;95.90;;;;;;5091689;28;20050;-78
2024/03/08 07:48:09;;;;;;;29.77;14.10;;;6.00;96.10;;;;;;5103923;28;20046;-79
2024/03/08 07:50:37;;;;;;;34.88;7.65;;;6.00;96.10;;;;;;5102225;28;20424;-79
2024/03/08 07:53:03;;;;;;;37.33;15.60;;;6.10;96.10;;;;;;5096148;28;20043;-79
2024/03/08 07:55:32;;;;;;;26.67;11.70;;;6.10;96.20;;;;;;5094625;28;20048;-77
2024/03/08 07:57:57;;;;;;;18.00;8.82;;;6.10;96.10;;;;;;5107485;28;20124;-78
2024/03/08 08:00:24;;;;;;;26.70;9.23;;;6.10;96.10;;;;;;5100518;28;20166;-77
2024/03/08 08:02:50;;;;;;;29.38;13.10;;;6.20;96.20;;;;;;5099898;28;20038;-78
2024/03/08 08:05:18;;;;;;;9.35;5.07;;;6.10;96.20;;;;;;5099592;28;20434;-79
2024/03/08 08:07:46;;;;;;;37.30;16.85;;;6.20;96.30;;;;;;5088827;28;20042;-78
2024/03/08 08:10:21;;;;;;;36.72;14.38;;;6.20;96.40;;;;;;5100764;28;20501;-78
2024/03/08 08:12:51;;;;;;;32.75;15.38;;;6.20;96.30;;;;;;5088887;28;20114;-81
2024/03/08 08:15:17;;;;;;;20.88;8.43;;;6.20;96.60;;;;;;5096230;28;20043;-80
2024/03/08 08:17:44;;;;;;;8.20;5.35;;;6.20;96.50;;;;;;5096528;28;20105;-80
2024/03/08 08:20:13;;;;;;;12.00;6.97;;;6.20;96.50;;;;;;5095950;28;20547;-77
2024/03/08 08:22:45;;;;;;;12.15;4.82;;;6.20;96.60;;;;;;5109431;28;20031;-78
2024/03/08 08:25:20;;;;;;;27.20;14.65;;;6.20;96.40;;;;;;5099749;28;20032;-78
2024/03/08 08:27:46;;;;;;;28.25;11.27;;;6.30;96.40;;;;;;5091018;28;20073;-78
2024/03/08 08:30:21;;;;;;;23.98;8.90;;;6.30;96.50;;;;;;5108990;28;20035;-78
2024/03/08 08:32:48;;;;;;;19.30;10.25;;;6.30;96.50;;;;;;5093681;28;20040;-78
2024/03/08 08:35:14;;;;;;;20.45;10.35;;;6.30;96.60;;;;;;5100232;28;20100;-78
2024/03/08 08:37:40;;;;;;;28.55;14.68;;;6.30;96.40;;;;;;5090738;28;20124;-77
2024/03/08 08:40:09;;;;;;;28.58;13.20;;;6.20;96.80;;;;;;5099208;28;20585;-78
2024/03/08 08:42:36;;;;;;;14.20;6.63;;;6.20;96.80;;;;;;5091276;28;20035;-77
2024/03/08 08:45:02;;;;;;;31.25;14.82;;;6.20;96.80;;;;;;5090553;28;20024;-78
2024/03/08 08:47:28;;;;;;;17.10;7.68;;;6.20;96.80;;;;;;5092741;28;20509;-78
2024/03/08 08:49:54;;;;;;;10.02;5.18;;;6.20;96.80;;;;;;5095575;28;20032;-78
2024/03/08 08:52:26;;;;;;;25.15;10.95;;;6.30;96.70;;;;;;5099411;27;20457;-77
2024/03/08 08:54:52;;;;;;;15.90;6.32;;;6.40;96.70;;;;;;5098896;28;20027;-76
2024/03/08 08:57:18;;;;;;;19.15;7.72;;;6.30;96.60;;;;;;5092674;28;20028;-77
2024/03/08 08:59:43;;;;;;;36.03;14.40;;;6.30;96.80;;;;;;5093023;28;20439;-77
2024/03/08 09:02:09;;;;;;;13.20;7.38;;;6.40;96.80;;;;;;5094659;28;20051;-76
2024/03/08 09:04:35;;;;;;;11.90;5.40;;;6.40;96.70;;;;;;5102093;28;20026;-77
2024/03/08 09:07:01;;;;;;;32.22;15.52;;;6.40;96.40;;;;;;5095759;28;20029;-76
2024/03/08 09:09:27;;;;;;;19.52;9.77;;;6.30;96.50;;;;;;5089385;28;20039;-76
2024/03/08 09:11:54;;;;;;;20.35;8.38;;;6.30;96.70;;;;;;5093688;28;20127;-77
2024/03/08 09:14:20;;;;;;;33.08;14.65;;;6.40;96.30;;;;;;5085545;28;20032;-76
2024/03/08 09:16:47;;;;;;;12.10;6.40;;;6.40;96.60;;;;;;5085393;28;20036;-76
2024/03/08 09:19:13;;;;;;;14.02;6.88;;;6.40;96.10;;;;;;5097590;28;20123;-76
2024/03/08 09:21:40;;;;;;;16.23;7.18;;;6.50;96.20;;;;;;5085198;28;20119;-77
2024/03/08 09:24:06;;;;;;;7.68;4.93;;;6.60;96.20;;;;;;5084023;28;20032;-77
2024/03/08 09:26:33;;;;;;;26.23;12.13;;;6.50;96.10;;;;;;5085289;28;20036;-76
2024/03/08 09:28:59;;;;;;;30.35;17.42;;;6.50;96.00;;;;;;5098603;28;20063;-77
2024/03/08 09:31:25;;;;;;;14.02;7.72;;;6.50;96.60;;;;;;5085338;28;20072;-77
2024/03/08 09:33:51;;;;;;;20.73;10.63;;;6.50;96.00;;;;;;5101829;28;20062;-79
2024/03/08 09:36:17;;;;;;;27.13;12.88;;;6.60;96.10;;;;;;5085524;28;20067;-78
2024/03/08 09:38:43;;;;;;;28.17;12.05;;;6.60;96.30;;;;;;5083125;28;20031;-76
2024/03/08 09:41:10;;;;;;;23.42;9.90;;;6.60;96.10;;;;;;5087732;28;20032;-77
2024/03/08 09:43:36;;;;;;;21.83;9.02;;;6.60;96.10;;;;;;5088849;28;20078;-77
2024/03/08 09:46:03;;;;;;;18.63;9.68;;;6.60;96.30;;;;;;5096512;28;20032;-77
2024/03/08 09:48:29;;;;;;;8.65;4.40;;;6.60;95.90;;;;;;5084485;28;20051;-77
2024/03/08 09:50:56;;;;;;;21.98;12.45;;;6.70;96.00;;;;;;5086721;28;20060;-77
2024/03/08 09:53:22;;;;;;;18.70;9.82;;;6.70;96.20;;;;;;5085559;28;20043;-77
2024/03/08 09:55:49;;;;;;;43.42;15.68;;;6.70;95.80;;;;;;5093451;28;20383;-77
2024/03/08 09:58:19;;;;;;;25.08;11.30;;;6.50;95.70;;;;;;5098935;28;20088;-77
2024/03/08 10:00:45;;;;;;;33.28;14.38;;;6.50;96.10;;;;;;5084870;28;20036;-77
2024/03/08 10:03:13;;;;;;;18.50;8.95;;;6.50;95.70;;;;;;5085082;28;20033;-77
2024/03/08 10:05:40;;;;;;;24.40;12.00;;;6.60;96.00;;;;;;5070864;28;20029;-77
2024/03/08 10:08:06;;;;;;;20.63;11.75;;;6.60;96.00;;;;;;5070178;28;20361;-77
2024/03/08 10:10:35;;;;;;;13.82;7.28;;;6.60;96.20;;;;;;5080191;28;20035;-77
2024/03/08 10:13:01;;;;;;;24.00;11.60;;;6.70;95.80;;;;;;5077573;28;20057;-77
2024/03/08 10:15:32;;;;;;;19.80;11.02;;;6.70;95.90;;;;;;5077876;28;20044;-77
2024/03/08 10:17:59;;;;;;;12.38;6.57;;;6.80;95.80;;;;;;5076962;28;20028;-77
2024/03/08 10:20:26;;;;;;;23.55;11.30;;;6.80;95.90;;;;;;5076231;28;20036;-77
2024/03/08 10:22:53;;;;;;;19.20;7.75;;;6.90;95.50;;;;;;5089704;28;20024;-77
2024/03/08 10:25:24;;;;;;;18.65;9.50;;;6.80;95.70;;;;;;5077062;28;20114;-77
2024/03/08 10:27:50;;;;;;;22.35;11.32;;;6.80;95.70;;;;;;5080238;28;20028;-77
2024/03/08 10:30:20;;;;;;;24.70;13.00;;;6.80;95.40;;;;;;5081468;28;20024;-77
2024/03/08 10:32:46;;;;;;;15.18;7.03;;;6.90;95.80;;;;;;5071640;28;20138;-76
2024/03/08 10:35:12;;;;;;;11.00;5.63;;;7.10;95.40;;;;;;5071136;28;20025;-77
2024/03/08 10:37:49;;;;;;;14.68;7.53;;;7.10;95.40;;;;;;5087403;28;20432;-77
2024/03/08 10:40:19;;;;;;;27.10;12.05;;;7.00;95.60;;;;;;5079501;28;20478;-76
2024/03/08 10:42:59;;;;;;;19.50;9.27;;;7.00;95.50;;;;;;5090013;28;20074;-77
2024/03/08 10:45:43;;;;;;;28.13;12.02;;;7.20;95.50;;;;;;5072304;28;20426;-77
2024/03/08 10:48:15;;;;;;;20.45;11.52;;;7.20;94.90;;;;;;5082438;28;20084;-77
2024/03/08 10:50:41;;;;;;;19.90;9.30;;;7.10;95.10;;;;;;5083505;28;20041;-77
2024/03/08 10:53:10;;;;;;;21.83;8.05;;;7.00;95.30;;;;;;5082040;28;20100;-78
2024/03/08 10:55:40;;;;;;;22.45;12.10;;;7.10;95.50;;;;;;5070442;28;20494;-78
2024/03/08 10:58:07;;;;;;;21.15;12.52;;;7.30;95.80;;;;;;5069139;28;20063;-81
2024/03/08 11:00:34;;;;;;;26.95;13.27;;;7.30;95.60;;;;;;5081576;28;20024;-81
2024/03/08 11:03:00;;;;;;;24.20;11.25;;;7.20;95.40;;;;;;5073294;28;20040;-81
2024/03/08 11:05:39;;;;;;;18.00;7.97;;;7.30;95.40;;;;;;5071118;28;20103;-76
2024/03/08 11:08:20;;;;;;;24.58;11.07;;;7.20;95.20;;;;;;5069944;28;20048;-77
2024/03/08 11:10:56;;;;;;;11.25;5.25;;;7.30;95.50;;;;;;5076259;28;20047;-78
2024/03/08 11:13:54;;;;;;;20.27;9.38;;;7.30;95.10;;;;;;5086554;28;20383;-78
2024/03/08 11:16:25;;;;;;;26.48;11.70;;;7.40;95.20;;;;;;5076471;28;20028;-79
2024/03/08 11:19:00;;;;;;;22.77;10.38;;;7.50;94.80;;;;;;5081238;28;20039;-77
2024/03/08 11:21:26;;;;;;;9.93;5.68;;;7.40;95.00;;;;;;5088515;28;20038;-77
2024/03/08 11:24:13;;;;;;;20.90;10.63;;;7.50;95.30;;;;;;5076443;28;20515;-77
2024/03/08 11:26:39;;;;;;;28.48;13.55;;;7.50;95.20;;;;;;5070479;28;20045;-77
2024/03/08 11:32:21;;;;;;;17.23;8.32;;;7.60;95.50;;;;;;5068924;28;20051;-77
2024/03/08 11:34:50;;;;;;;21.45;7.90;;;7.70;95.30;;;;;;5082219;28;20458;-77
2024/03/08 11:37:18;;;;;;;20.75;10.95;;;7.60;95.20;;;;;;5069860;28;20502;-78
2024/03/08 11:39:51;;;;;;;24.75;11.32;;;7.70;95.30;;;;;;5078324;28;20051;-78
2024/03/08 11:42:18;;;;;;;;;;;7.60;95.10;;;;;;5073931;28;20032;-77
2024/03/08 11:44:47;;;;;;;31.25;16.63;;;7.70;95.20;;;;;;5070949;28;19909;-77
2024/03/08 11:47:14;;;;;;;24.90;11.45;;;7.80;95.30;;;;;;5072404;28;20479;-77
2024/03/08 11:49:44;;;;;;;22.17;12.00;;;7.70;95.10;;;;;;5081455;28;20074;-78
2024/03/08 11:52:15;;;;;;;24.58;12.82;;;7.70;95.40;;;;;;5076947;28;20071;-77
2024/03/08 11:54:41;;;;;;;19.90;10.68;;;7.70;95.40;;;;;;5084483;28;20025;-77
2024/03/08 11:57:09;;;;;;;12.27;6.20;;;7.80;95.10;;;;;;5086878;28;20890;-78
2024/03/08 11:59:35;;;;;;;14.32;7.88;;;7.90;95.40;;;;;;5079954;28;20021;-78
2024/03/08 12:02:11;;;;;;;27.48;14.25;;;8.00;95.00;;;;;;5075860;28;20040;-78
2024/03/08 12:04:36;;;;;;;19.65;9.60;;;8.00;95.20;;;;;;5067974;28;20434;-78
2024/03/08 12:07:08;;;;;;;21.15;7.72;;;8.10;95.10;;;;;;5071489;28;20036;-78
2024/03/08 12:09:36;;;;;;;16.05;8.75;;;8.20;94.80;;;;;;5085625;28;20491;-78
2024/03/08 12:12:03;;;;;;;17.88;10.00;;;8.20;95.00;;;;;;5068399;28;20067;-77
2024/03/08 12:14:31;;;;;;;18.15;8.85;;;8.20;95.00;;;;;;5080580;28;20483;-77
2024/03/08 12:16:57;;;;;;;16.05;7.53;;;8.20;95.10;;;;;;5074237;28;20086;-78
2024/03/08 12:19:23;;;;;;;18.77;9.27;;;8.30;95.00;;;;;;5081901;28;20916;-77
2024/03/08 12:21:49;;;;;;;17.13;9.25;;;8.20;94.70;;;;;;5078627;28;20483;-78
2024/03/08 12:24:19;;;;;;;18.42;9.15;;;8.20;94.70;;;;;;5071508;28;20028;-77
2024/03/08 12:26:48;;;;;;;20.50;10.13;;;8.30;94.70;;;;;;5078276;28;20111;-78
2024/03/08 12:29:27;;;;;;;17.95;9.93;;;8.40;94.80;;;;;;5069402;28;20166;-78
2024/03/08 12:32:00;;;;;;;16.55;9.55;;;8.40;94.70;;;;;;5079215;28;20062;-78
2024/03/08 12:34:29;;;;;;;25.00;10.70;;;8.40;95.00;;;;;;5070592;28;20040;-77
2024/03/08 12:36:55;;;;;;;18.30;10.02;;;8.40;94.60;;;;;;5071572;28;20040;-79
2024/03/08 12:39:30;;;;;;;10.68;6.43;;;8.40;94.40;;;;;;5089512;28;20016;-78
2024/03/08 12:42:02;;;;;;;11.88;7.13;;;8.40;94.60;;;;;;5074260;28;20035;-77
2024/03/08 12:44:28;;;;;;;24.00;11.15;;;8.50;94.60;;;;;;5078517;28;20141;-77
2024/03/08 12:46:54;;;;;;;12.00;6.35;;;8.40;94.50;;;;;;5070113;28;20056;-76
2024/03/08 12:49:22;;;;;;;18.40;8.38;;;8.50;94.70;;;;;;5068570;28;20532;-74